PDT,Max TemperatureF,Mean TemperatureF,Min TemperatureF,Max Dew PointF,MeanDew PointF,Min DewpointF,Max Humidity, Mean Humidity, Min Humidity, Max Sea Level PressureIn, Mean Sea Level PressureIn, Min Sea Level PressureIn, Max VisibilityMiles, Mean VisibilityMiles, Min VisibilityMiles, Max Wind SpeedMPH, Mean Wind SpeedMPH, Max Gust SpeedMPH,PrecipitationIn, CloudCover, Events, WindDirDegrees
2013-6-1,71,60,49,50,47,44,86,65,44,30.01,29.93,29.87,10,9,6,16,6,28,0.00,0,,244
2013-6-2,57,54,51,51,49,48,93,85,77,29.88,29.85,29.81,10,7,2,17,10,22,0.00,8,,229
2013-6-3,68,60,52,53,50,48,93,74,55,29.94,29.87,29.79,10,9,4,13,3,15,0.00,5,,265
2013-6-4,65,58,51,54,50,46,89,78,67,30.04,29.98,29.89,10,10,10,18,5,22,0.00,6,,261
2013-6-5,64,59,54,51,50,48,86,76,65,30.06,30.04,29.99,10,10,10,15,5,20,0.00,7,,249
2013-6-6,64,59,53,52,50,48,93,78,63,30.03,29.99,29.93,10,10,7,13,6,18,0.00,6,,245
2013-6-7,69,61,52,53,51,50,96,78,59,29.97,29.89,29.81,10,7,2,10,4,13,0.00,4,,11
2013-6-8,73,62,51,55,52,48,100,77,53,29.91,29.82,29.79,10,7,1,16,5,18,0.00,5,,53
2013-6-9,69,63,57,56,55,53,93,78,63,29.95,29.91,29.87,10,9,5,17,5,22,0.00,7,,311
2013-6-10,67,62,57,55,53,52,93,78,63,30.01,29.97,29.90,10,10,5,22,7,28,0.00,7,,257
2013-6-11,65,60,55,55,53,50,93,78,63,30.04,29.99,29.94,10,10,10,15,5,20,0.00,5,,283
2013-6-12,64,59,53,52,49,47,89,73,56,30.12,30.03,29.95,10,9,7,16,9,26,0.00,3,,233
2013-6-13,63,58,52,50,48,46,83,72,60,30.16,30.12,30.07,10,10,8,15,9,20,0.00,3,,229
2013-6-14,66,58,49,51,49,45,89,73,56,30.05,29.97,29.92,10,8,0,12,6,17,0.00,3,Fog,236
2013-6-15,59,56,52,50,49,48,89,78,67,30.09,30.02,29.93,10,10,8,15,7,20,0.00,8,,233
2013-6-16,68,60,51,51,50,48,89,74,58,30.17,30.13,30.07,10,10,10,17,7,21,0.00,3,,242
2013-6-17,68,61,54,54,52,48,93,76,59,30.17,30.13,30.09,10,10,10,18,7,25,0.00,4,,237
2013-6-18,66,61,55,53,51,49,86,71,56,30.13,30.10,30.07,10,10,10,21,10,28,0.00,3,,258
2013-6-19,65,59,52,52,49,47,89,73,56,30.13,30.10,30.05,10,10,10,17,7,22,0.00,0,,252
2013-6-20,65,58,50,49,47,44,83,68,52,30.09,30.06,30.04,10,10,10,21,8,25,0.00,0,,230
2013-6-21,65,59,52,52,50,48,89,76,63,30.07,30.03,29.98,10,10,10,16,8,21,0.00,3,,221
2013-6-22,68,58,48,55,50,45,93,73,52,30.01,29.98,29.93,10,10,5,16,7,22,0.00,4,,235
2013-6-23,69,62,55,60,56,54,93,80,66,29.99,29.94,29.87,10,7,2,10,4,15,0.02,7,,242
2013-6-24,72,66,59,61,58,55,97,82,66,29.98,29.89,29.83,10,8,2,15,5,20,0.02,8,,249
2013-6-25,74,67,60,62,59,56,93,79,64,30.05,30.01,29.96,10,8,2,21,5,26,0.00,7,,293
2013-6-26,73,66,59,63,60,56,100,82,63,30.10,30.05,30.00,10,7,0,12,4,16,0.00,4,Fog,286
2013-6-27,74,66,58,58,56,54,93,71,49,30.12,30.08,30.03,10,9,1,13,4,16,0.00,1,,276
2013-6-28,73,65,56,75,56,53,93,77,61,30.07,30.02,29.69,10,10,10,10,4,15,0.00,0,,294
2013-6-29,78,68,57,56,54,53,86,65,43,29.98,29.95,29.90,10,10,10,13,5,16,0.00,0,,290
2013-6-30,74,66,57,56,55,53,93,71,49,29.93,29.89,29.85,10,10,10,13,7,17,0.00,1,,262